Time;durP1;ratioP1;P1;durP2;ratioP2;P2;SDS_P1;SDS_P2;PMS_P1;PMS_P2;Temp;Humidity;BMP_temperature;BMP_pressure;BME280_temperature;BME280_humidity;BME280_pressure;Samples;Min_cycle;Max_cycle;Signal;HPM_P1;HPM_P2
2022/08/26 00:00:10;;;;;;;31.63;22.88;;;;;;;;;;4977832;28;20047;-82
2022/08/26 00:02:58;;;;;;;28.63;21.75;;;;;;;;;;4984266;28;20054;-82
2022/08/26 00:05:44;;;;;;;28.13;21.98;;;;;;;;;;4984490;28;20043;-83
2022/08/26 00:08:29;;;;;;;29.55;21.80;;;;;;;;;;4983640;28;20042;-82
2022/08/26 00:11:15;;;;;;;27.15;21.38;;;;;;;;;;4962931;28;20047;-83
2022/08/26 00:14:00;;;;;;;29.30;21.60;;;;;;;;;;4969318;28;20062;-83
2022/08/26 00:16:46;;;;;;;28.38;21.83;;;;;;;;;;4983931;28;20047;-83
2022/08/26 00:19:32;;;;;;;30.33;22.58;;;;;;;;;;4983814;28;20046;-84
2022/08/26 00:22:17;;;;;;;28.00;21.67;;;;;;;;;;4976876;28;20039;-85
2022/08/26 00:25:05;;;;;;;29.65;20.98;;;;;;;;;;4977268;28;20043;-86
2022/08/26 00:27:50;;;;;;;29.13;21.42;;;;;;;;;;4977133;28;20491;-83
2022/08/26 00:30:35;;;;;;;30.50;21.30;;;;;;;;;;4976916;28;20042;-82
2022/08/26 00:33:21;;;;;;;28.67;22.05;;;;;;;;;;4977525;28;20051;-83
2022/08/26 00:36:08;;;;;;;31.70;22.13;;;;;;;;;;4982971;28;20051;-83
2022/08/26 00:38:52;;;;;;;28.38;21.52;;;;;;;;;;4983791;28;20039;-83
2022/08/26 00:41:39;;;;;;;32.90;21.20;;;;;;;;;;4969251;28;20046;-82
2022/08/26 00:44:24;;;;;;;26.13;21.20;;;;;;;;;;4976300;28;20047;-85
2022/08/26 00:47:23;;;;;;;25.92;22.08;;;;;;;;;;4983288;28;20050;-85
2022/08/26 00:50:13;;;;;;;28.02;21.48;;;;;;;;;;4976603;28;20051;-83
2022/08/26 00:53:01;;;;;;;25.40;20.92;;;;;;;;;;4977216;28;20051;-83
2022/08/26 00:56:04;;;;;;;30.17;21.55;;;;;;;;;;4976953;28;20051;-83
2022/08/26 00:58:50;;;;;;;26.63;22.05;;;;;;;;;;4976601;28;20386;-83
2022/08/26 01:01:38;;;;;;;33.42;22.15;;;;;;;;;;4976718;28;20055;-82
2022/08/26 01:04:23;;;;;;;30.80;23.35;;;;;;;;;;4975243;28;20046;-83
2022/08/26 01:07:09;;;;;;;29.58;22.75;;;;;;;;;;4982943;28;20423;-82
2022/08/26 01:09:56;;;;;;;35.85;22.70;;;;;;;;;;4983234;28;20047;-83
2022/08/26 01:12:47;;;;;;;29.83;22.35;;;;;;;;;;4968407;28;20047;-82
2022/08/26 01:15:35;;;;;;;30.48;22.27;;;;;;;;;;4983097;28;20051;-83
2022/08/26 01:18:21;;;;;;;30.23;22.95;;;;;;;;;;4982518;28;20059;-82
2022/08/26 01:21:24;;;;;;;34.15;22.80;;;;;;;;;;4982965;28;20055;-81
2022/08/26 01:24:10;;;;;;;30.67;22.20;;;;;;;;;;4976336;28;20043;-82
2022/08/26 01:27:03;;;;;;;32.28;23.50;;;;;;;;;;4976695;28;20043;-83
2022/08/26 01:29:50;;;;;;;31.00;23.80;;;;;;;;;;4982871;28;20131;-82
2022/08/26 01:32:37;;;;;;;32.45;22.63;;;;;;;;;;4976017;28;20039;-81
2022/08/26 01:35:23;;;;;;;29.08;22.38;;;;;;;;;;4976369;28;20058;-84
2022/08/26 01:38:09;;;;;;;34.70;22.35;;;;;;;;;;4967988;28;20054;-82
2022/08/26 01:40:55;;;;;;;37.40;22.42;;;;;;;;;;4977974;28;20051;-85
2022/08/26 01:43:44;;;;;;;28.27;21.70;;;;;;;;;;4979213;28;20395;-82
2022/08/26 01:46:31;;;;;;;28.00;22.48;;;;;;;;;;4979571;28;20047;-81
2022/08/26 01:49:18;;;;;;;28.65;21.83;;;;;;;;;;4987703;28;20058;-84
2022/08/26 01:52:04;;;;;;;30.55;22.02;;;;;;;;;;4980047;28;20039;-83
2022/08/26 01:54:51;;;;;;;28.75;21.75;;;;;;;;;;4980101;28;20054;-82
2022/08/26 01:57:39;;;;;;;28.95;21.70;;;;;;;;;;4985800;28;20400;-82
2022/08/26 02:00:25;;;;;;;33.63;22.70;;;;;;;;;;4979013;28;20050;-80
2022/08/26 02:03:17;;;;;;;30.73;22.70;;;;;;;;;;4979411;28;20407;-81
2022/08/26 02:06:05;;;;;;;30.67;22.17;;;;;;;;;;4985766;28;20050;-85
2022/08/26 02:08:54;;;;;;;34.00;21.52;;;;;;;;;;4977450;28;20058;-84
2022/08/26 02:11:40;;;;;;;29.05;20.98;;;;;;;;;;4982045;28;20394;-83
2022/08/26 02:14:33;;;;;;;28.30;20.52;;;;;;;;;;4975200;28;20054;-83
2022/08/26 02:17:25;;;;;;;31.65;20.80;;;;;;;;;;4981809;28;20046;-83
2022/08/26 02:20:15;;;;;;;28.90;20.75;;;;;;;;;;4981362;28;20050;-83
2022/08/26 02:23:00;;;;;;;25.55;20.23;;;;;;;;;;4975602;28;20046;-84
2022/08/26 02:25:48;;;;;;;30.60;20.92;;;;;;;;;;4975295;28;20047;-83
2022/08/26 02:28:50;;;;;;;29.02;21.02;;;;;;;;;;4981440;28;20050;-82
2022/08/26 02:31:35;;;;;;;30.45;21.45;;;;;;;;;;4975415;28;20050;-82
2022/08/26 02:34:25;;;;;;;35.13;21.50;;;;;;;;;;4981012;28;20050;-83
2022/08/26 02:37:10;;;;;;;28.83;20.98;;;;;;;;;;4975005;28;20478;-82
2022/08/26 02:39:56;;;;;;;28.80;21.55;;;;;;;;;;4975454;28;20050;-82
2022/08/26 02:42:41;;;;;;;29.30;21.15;;;;;;;;;;4981153;28;20047;-82
2022/08/26 02:45:27;;;;;;;36.78;22.77;;;;;;;;;;4981443;28;20051;-84
2022/08/26 02:48:15;;;;;;;29.83;21.25;;;;;;;;;;4974878;28;20058;-83
2022/08/26 02:51:01;;;;;;;30.83;20.88;;;;;;;;;;4975404;28;20051;-83
2022/08/26 02:53:47;;;;;;;30.33;22.10;;;;;;;;;;4981365;28;20479;-83
2022/08/26 02:56:33;;;;;;;27.42;20.95;;;;;;;;;;4974911;28;20055;-85
2022/08/26 02:59:18;;;;;;;24.40;20.55;;;;;;;;;;4978154;28;20062;-83
2022/08/26 03:02:05;;;;;;;25.15;20.60;;;;;;;;;;4975180;28;20046;-84
2022/08/26 03:04:50;;;;;;;28.70;22.05;;;;;;;;;;4974883;28;20043;-81
2022/08/26 03:07:36;;;;;;;28.88;22.42;;;;;;;;;;4974830;28;20050;-83
2022/08/26 03:10:22;;;;;;;24.38;20.45;;;;;;;;;;4966413;28;20047;-81
2022/08/26 03:13:08;;;;;;;26.95;20.95;;;;;;;;;;4981256;28;20046;-83
2022/08/26 03:15:53;;;;;;;23.17;19.77;;;;;;;;;;4981170;28;20054;-83
2022/08/26 03:18:39;;;;;;;31.05;20.17;;;;;;;;;;4974845;28;20043;-82
2022/08/26 03:21:24;;;;;;;24.40;19.65;;;;;;;;;;4974741;28;20035;-82
2022/08/26 03:24:11;;;;;;;31.30;19.95;;;;;;;;;;4980751;28;20047;-85
2022/08/26 03:26:57;;;;;;;23.65;19.63;;;;;;;;;;4981832;28;20054;-83
2022/08/26 03:32:46;;;;;;;31.87;21.17;;;;;;;;;;4984839;28;20054;-83
2022/08/26 03:35:33;;;;;;;28.00;20.77;;;;;;;;;;4978347;28;20047;-83
2022/08/26 03:38:24;;;;;;;26.95;21.67;;;;;;;;;;4970123;28;20047;-82
2022/08/26 03:41:11;;;;;;;29.42;20.75;;;;;;;;;;4978269;28;20491;-83
2022/08/26 03:43:56;;;;;;;30.25;21.88;;;;;;;;;;4984485;28;20055;-83
2022/08/26 03:46:41;;;;;;;27.10;20.77;;;;;;;;;;4984524;28;20054;-82
2022/08/26 03:49:26;;;;;;;27.15;21.35;;;;;;;;;;4984521;28;20054;-85
2022/08/26 03:52:12;;;;;;;31.73;21.80;;;;;;;;;;4977390;28;20039;-83
2022/08/26 03:54:58;;;;;;;27.00;21.70;;;;;;;;;;4977808;28;20054;-84
2022/08/26 03:57:43;;;;;;;29.00;20.92;;;;;;;;;;4984709;28;20059;-83
2022/08/26 04:00:29;;;;;;;32.53;21.73;;;;;;;;;;4977487;28;20050;-82
2022/08/26 04:03:56;;;;;;;31.50;22.02;;;;;;;;;;4984785;28;20047;-82
2022/08/26 04:06:20;;;;;;;31.83;20.17;;;;;;;;;;4977218;28;20042;-82
2022/08/26 04:09:18;;;;;;;26.10;20.50;;;;;;;;;;4984538;28;20046;-82
2022/08/26 04:12:04;;;;;;;28.60;20.45;;;;;;;;;;4977535;28;20039;-83
2022/08/26 04:14:53;;;;;;;25.23;20.10;;;;;;;;;;4977970;28;20046;-82
2022/08/26 04:17:39;;;;;;;27.50;20.15;;;;;;;;;;4984561;28;20394;-83
2022/08/26 04:20:25;;;;;;;29.02;19.20;;;;;;;;;;4978644;28;20035;-82
2022/08/26 04:23:12;;;;;;;29.38;20.25;;;;;;;;;;4989217;28;20050;-83
2022/08/26 04:26:00;;;;;;;28.65;19.90;;;;;;;;;;4989595;28;20046;-80
2022/08/26 04:28:47;;;;;;;32.58;19.67;;;;;;;;;;4988308;28;20046;-83
2022/08/26 04:31:35;;;;;;;23.40;19.20;;;;;;;;;;4990090;28;20480;-84
2022/08/26 04:34:27;;;;;;;30.52;19.27;;;;;;;;;;4994564;28;20046;-81
2022/08/26 04:37:12;;;;;;;25.63;19.00;;;;;;;;;;4996668;28;20046;-83
2022/08/26 04:39:58;;;;;;;24.23;19.35;;;;;;;;;;4995249;28;20050;-84
2022/08/26 04:42:43;;;;;;;27.92;19.42;;;;;;;;;;4986094;28;20050;-84
2022/08/26 04:45:29;;;;;;;23.90;19.23;;;;;;;;;;4982705;28;20406;-83
2022/08/26 04:48:14;;;;;;;25.02;17.42;;;;;;;;;;5002510;28;20054;-82
2022/08/26 04:51:00;;;;;;;25.05;17.52;;;;;;;;;;4986823;28;20050;-84
2022/08/26 04:53:46;;;;;;;25.38;17.88;;;;;;;;;;5004467;28;20054;-85
2022/08/26 04:56:40;;;;;;;25.98;16.98;;;;;;;;;;5000801;28;20394;-80
2022/08/26 04:59:26;;;;;;;;;;;;;;;;;;5003931;28;20050;-86
2022/08/26 05:02:11;;;;;;;22.30;16.95;;;;;;;;;;4997338;28;19917;-83
2022/08/26 05:04:57;;;;;;;29.02;18.95;;;;;;;;;;4996165;28;20050;-84
2022/08/26 05:07:43;;;;;;;21.02;16.83;;;;;;;;;;5002465;28;20046;-82
2022/08/26 05:10:28;;;;;;;25.08;17.88;;;;;;;;;;5002340;28;20054;-83
2022/08/26 05:13:17;;;;;;;25.73;16.35;;;;;;;;;;4995905;28;20062;-86
2022/08/26 05:16:05;;;;;;;21.98;15.30;;;;;;;;;;4986375;28;20054;-84
2022/08/26 05:18:52;;;;;;;22.70;14.60;;;;;;;;;;4995106;28;20042;-83
2022/08/26 05:21:37;;;;;;;19.92;13.88;;;;;;;;;;4990041;28;20043;-82
2022/08/26 05:24:23;;;;;;;20.10;14.48;;;;;;;;;;4982177;28;20051;-83
2022/08/26 05:27:09;;;;;;;23.40;16.27;;;;;;;;;;4990017;28;20512;-83
2022/08/26 05:29:57;;;;;;;20.08;14.23;;;;;;;;;;4994094;28;20042;-82
2022/08/26 05:32:43;;;;;;;20.95;14.02;;;;;;;;;;4993665;28;20073;-83
2022/08/26 05:35:33;;;;;;;22.20;13.90;;;;;;;;;;4992795;28;20409;-83
2022/08/26 05:38:20;;;;;;;21.67;13.13;;;;;;;;;;4993983;28;20054;-84
2022/08/26 05:41:20;;;;;;;19.50;12.23;;;;;;;;;;4990466;28;20046;-81
2022/08/26 05:44:07;;;;;;;22.77;12.75;;;;;;;;;;4988772;28;20054;-83
2022/08/26 05:46:52;;;;;;;21.50;13.18;;;;;;;;;;4987488;28;20059;-82
2022/08/26 05:49:38;;;;;;;21.60;13.43;;;;;;;;;;4975443;28;20038;-82
2022/08/26 05:52:24;;;;;;;18.90;13.32;;;;;;;;;;4995129;28;20050;-83
2022/08/26 05:55:09;;;;;;;26.90;13.45;;;;;;;;;;4991611;28;20050;-83
2022/08/26 05:57:55;;;;;;;18.33;13.70;;;;;;;;;;4993784;28;20054;-82
2022/08/26 06:00:40;;;;;;;21.33;13.93;;;;;;;;;;4999168;28;20050;-82
2022/08/26 06:03:27;;;;;;;18.83;13.68;;;;;;;;;;4995263;28;20055;-82
2022/08/26 06:06:15;;;;;;;24.88;14.27;;;;;;;;;;4999792;28;20422;-83
2022/08/26 06:09:05;;;;;;;25.10;14.48;;;;;;;;;;4994704;28;20046;-82
2022/08/26 06:11:50;;;;;;;22.70;15.45;;;;;;;;;;5000026;28;20050;-81
2022/08/26 06:14:35;;;;;;;22.40;14.80;;;;;;;;;;4998957;28;20054;-81
2022/08/26 06:17:21;;;;;;;22.77;14.98;;;;;;;;;;5000988;28;20409;-81
2022/08/26 06:20:07;;;;;;;24.92;14.00;;;;;;;;;;4986263;28;20047;-82
2022/08/26 06:25:56;;;;;;;21.90;14.35;;;;;;;;;;4974814;28;20039;-82
2022/08/26 06:28:42;;;;;;;26.48;16.20;;;;;;;;;;4987577;28;20046;-82
2022/08/26 06:31:28;;;;;;;22.90;15.90;;;;;;;;;;4992500;28;20047;-81
2022/08/26 06:34:13;;;;;;;24.77;16.25;;;;;;;;;;4991426;28;20051;-83
2022/08/26 06:37:04;;;;;;;20.55;14.57;;;;;;;;;;4991500;28;20397;-82
2022/08/26 06:39:50;;;;;;;25.92;14.82;;;;;;;;;;4988621;28;20034;-81
2022/08/26 06:42:36;;;;;;;23.58;14.63;;;;;;;;;;4994138;28;20050;-81
2022/08/26 06:45:24;;;;;;;21.65;14.73;;;;;;;;;;5000729;28;20038;-81
2022/08/26 06:48:09;;;;;;;20.13;14.35;;;;;;;;;;5000751;28;20050;-81
2022/08/26 06:51:12;;;;;;;21.17;14.60;;;;;;;;;;4994283;28;20042;-82
2022/08/26 06:53:59;;;;;;;18.33;13.88;;;;;;;;;;4988237;28;20413;-82
2022/08/26 06:56:44;;;;;;;21.75;13.05;;;;;;;;;;4998573;28;20042;-81
2022/08/26 06:59:29;;;;;;;17.25;13.63;;;;;;;;;;4986239;28;20058;-82
2022/08/26 07:02:15;;;;;;;23.23;13.88;;;;;;;;;;4981664;28;20043;-79
2022/08/26 07:05:01;;;;;;;22.10;14.45;;;;;;;;;;4996603;28;20042;-80
2022/08/26 07:07:47;;;;;;;18.83;14.23;;;;;;;;;;4996958;28;20042;-81
2022/08/26 07:10:32;;;;;;;21.70;14.35;;;;;;;;;;4998048;28;20047;-81
2022/08/26 07:13:17;;;;;;;18.80;13.05;;;;;;;;;;4997858;28;20054;-84
2022/08/26 07:16:08;;;;;;;23.20;13.70;;;;;;;;;;4997439;28;20046;-82
2022/08/26 07:18:53;;;;;;;24.00;14.40;;;;;;;;;;4997898;28;20050;-82
2022/08/26 07:21:40;;;;;;;20.88;14.35;;;;;;;;;;4981795;28;20047;-82
2022/08/26 07:24:25;;;;;;;16.80;13.73;;;;;;;;;;4996702;28;20150;-83
2022/08/26 07:27:13;;;;;;;24.73;18.25;;;;;;;;;;5004383;28;20413;-83
2022/08/26 07:29:59;;;;;;;77.88;54.00;;;;;;;;;;4997608;28;20470;-83
2022/08/26 07:32:44;;;;;;;106.38;76.20;;;;;;;;;;4997550;28;20046;-83
2022/08/26 07:35:30;;;;;;;201.27;167.00;;;;;;;;;;4984982;28;20486;-83
2022/08/26 07:38:16;;;;;;;22.60;15.88;;;;;;;;;;4986811;28;20374;-83
2022/08/26 07:41:02;;;;;;;24.88;17.92;;;;;;;;;;4987103;28;20050;-84
2022/08/26 07:43:48;;;;;;;23.25;13.20;;;;;;;;;;4991109;28;20075;-83
2022/08/26 07:46:34;;;;;;;21.15;13.50;;;;;;;;;;4992113;28;20050;-82
2022/08/26 07:49:25;;;;;;;19.05;12.35;;;;;;;;;;5001744;28;20050;-81
2022/08/26 07:52:11;;;;;;;19.35;13.02;;;;;;;;;;4994346;28;20034;-81
2022/08/26 07:54:58;;;;;;;17.13;14.05;;;;;;;;;;5003723;28;20413;-82
2022/08/26 07:57:45;;;;;;;20.38;13.20;;;;;;;;;;4996557;28;20405;-83
2022/08/26 08:00:32;;;;;;;20.08;13.65;;;;;;;;;;4997647;28;20401;-82
2022/08/26 08:03:17;;;;;;;18.05;13.27;;;;;;;;;;5003313;28;20058;-81
2022/08/26 08:06:03;;;;;;;21.08;13.88;;;;;;;;;;5003140;28;20046;-83
2022/08/26 08:08:49;;;;;;;21.17;13.63;;;;;;;;;;4990158;28;20038;-84
2022/08/26 08:11:35;;;;;;;18.63;13.32;;;;;;;;;;4996805;28;20046;-84
2022/08/26 08:14:20;;;;;;;24.20;13.85;;;;;;;;;;4996642;28;20047;-83
2022/08/26 08:17:06;;;;;;;20.25;13.05;;;;;;;;;;4995227;28;20050;-83
2022/08/26 08:19:52;;;;;;;21.92;12.82;;;;;;;;;;4988189;28;20046;-83
2022/08/26 08:22:37;;;;;;;14.77;12.25;;;;;;;;;;4994242;28;20054;-82
2022/08/26 08:25:23;;;;;;;22.73;13.05;;;;;;;;;;5002775;28;20398;-81
2022/08/26 08:28:08;;;;;;;17.83;12.27;;;;;;;;;;5003529;28;20469;-82
2022/08/26 08:30:55;;;;;;;17.27;13.20;;;;;;;;;;4996748;28;20390;-80
2022/08/26 08:33:40;;;;;;;15.75;12.18;;;;;;;;;;4996517;28;20042;-82
2022/08/26 08:36:26;;;;;;;16.48;12.93;;;;;;;;;;5002788;28;20054;-83
2022/08/26 08:39:12;;;;;;;32.60;13.25;;;;;;;;;;4996268;28;20050;-82
2022/08/26 08:42:12;;;;;;;15.48;11.55;;;;;;;;;;4988306;28;20405;-79
2022/08/26 08:45:14;;;;;;;18.55;11.52;;;;;;;;;;4999142;28;20480;-79
2022/08/26 08:48:03;;;;;;;17.35;10.65;;;;;;;;;;4986103;28;20059;-79
2022/08/26 08:50:52;;;;;;;13.73;8.85;;;;;;;;;;4992679;28;20378;-79
2022/08/26 08:53:41;;;;;;;12.90;9.30;;;;;;;;;;4996428;28;20054;-80
2022/08/26 08:56:31;;;;;;;14.30;9.05;;;;;;;;;;5001068;28;20478;-81
2022/08/26 08:59:22;;;;;;;14.23;8.30;;;;;;;;;;4995545;28;20050;-81
2022/08/26 09:02:25;;;;;;;13.40;9.07;;;;;;;;;;5000203;28;20481;-80
2022/08/26 09:05:20;;;;;;;14.15;8.63;;;;;;;;;;5002136;28;20042;-81
2022/08/26 09:08:10;;;;;;;11.05;8.57;;;;;;;;;;4999504;28;20417;-81
2022/08/26 09:10:59;;;;;;;11.75;6.93;;;;;;;;;;4987920;28;20047;-82
2022/08/26 09:13:51;;;;;;;14.07;8.50;;;;;;;;;;4990406;28;20047;-81
2022/08/26 09:16:45;;;;;;;16.52;8.23;;;;;;;;;;4978162;28;20046;-79
2022/08/26 09:19:46;;;;;;;13.43;8.38;;;;;;;;;;4982832;28;20055;-79
2022/08/26 09:22:35;;;;;;;13.60;9.63;;;;;;;;;;4976385;28;20042;-79
2022/08/26 09:25:20;;;;;;;14.23;8.82;;;;;;;;;;4997373;28;20051;-81
2022/08/26 09:28:15;;;;;;;10.45;8.05;;;;;;;;;;4997011;28;20046;-81
2022/08/26 09:31:20;;;;;;;16.02;7.50;;;;;;;;;;4968242;28;20055;-82
2022/08/26 09:34:19;;;;;;;17.73;7.85;;;;;;;;;;4985024;28;20050;-83
2022/08/26 09:37:06;;;;;;;12.13;8.00;;;;;;;;;;4996134;28;20055;-81
2022/08/26 09:39:52;;;;;;;13.95;7.50;;;;;;;;;;5004479;28;20058;-81
2022/08/26 09:42:37;;;;;;;13.23;8.32;;;;;;;;;;4995161;28;20050;-81
2022/08/26 09:45:27;;;;;;;11.82;7.93;;;;;;;;;;4986148;28;20070;-79
2022/08/26 09:48:33;;;;;;;15.70;7.82;;;;;;;;;;4988534;28;20046;-81
2022/08/26 09:51:21;;;;;;;13.88;7.30;;;;;;;;;;4982938;28;20054;-81
2022/08/26 09:54:06;;;;;;;11.52;7.20;;;;;;;;;;4991795;28;20042;-82
2022/08/26 09:57:08;;;;;;;10.27;7.00;;;;;;;;;;4976274;28;20051;-82
2022/08/26 09:59:54;;;;;;;10.18;6.63;;;;;;;;;;4983351;28;20042;-80
2022/08/26 10:02:43;;;;;;;14.13;7.15;;;;;;;;;;4984617;28;20046;-84
2022/08/26 10:05:42;;;;;;;12.88;7.18;;;;;;;;;;4986129;28;20046;-81
2022/08/26 10:08:37;;;;;;;16.00;7.47;;;;;;;;;;4989271;28;20448;-82
2022/08/26 10:11:39;;;;;;;13.07;6.38;;;;;;;;;;5000892;28;20050;-82
2022/08/26 10:14:40;;;;;;;13.02;8.07;;;;;;;;;;4993511;28;20042;-81
2022/08/26 10:18:05;;;;;;;16.17;7.03;;;;;;;;;;4999687;28;20042;-83
2022/08/26 10:21:14;;;;;;;9.98;6.30;;;;;;;;;;4975389;28;20043;-81
2022/08/26 10:24:02;;;;;;;12.35;5.60;;;;;;;;;;4974778;28;20428;-82
2022/08/26 10:26:56;;;;;;;9.32;3.92;;;;;;;;;;4977297;28;20091;-82
2022/08/26 10:29:48;;;;;;;12.18;5.50;;;;;;;;;;4989266;28;20046;-82
2022/08/26 10:32:35;;;;;;;13.55;6.80;;;;;;;;;;4992515;28;20058;-82
2022/08/26 10:35:20;;;;;;;11.75;6.35;;;;;;;;;;4993086;28;20050;-82
2022/08/26 10:38:13;;;;;;;19.58;7.15;;;;;;;;;;4997487;28;20058;-81
2022/08/26 10:41:08;;;;;;;9.13;5.60;;;;;;;;;;4992542;28;20042;-81
2022/08/26 10:43:58;;;;;;;20.60;6.78;;;;;;;;;;4999591;28;20054;-80
2022/08/26 10:46:49;;;;;;;12.85;5.45;;;;;;;;;;4989280;28;20042;-80
2022/08/26 10:49:36;;;;;;;13.85;5.75;;;;;;;;;;4991959;28;20047;-81
2022/08/26 10:52:36;;;;;;;11.88;6.55;;;;;;;;;;4979910;28;20038;-82
2022/08/26 10:55:27;;;;;;;11.52;5.97;;;;;;;;;;4997200;28;20054;-81
2022/08/26 10:58:25;;;;;;;17.55;5.60;;;;;;;;;;4993594;28;20043;-80
2022/08/26 11:04:29;;;;;;;17.80;6.50;;;;;;;;;;4994391;28;20042;-80
2022/08/26 11:07:44;;;;;;;12.95;5.60;;;;;;;;;;4993634;28;20402;-81
2022/08/26 11:10:42;;;;;;;9.90;5.65;;;;;;;;;;5000426;28;20050;-82
2022/08/26 11:13:55;;;;;;;12.50;5.78;;;;;;;;;;4993590;28;20042;-80
2022/08/26 11:16:46;;;;;;;18.40;5.50;;;;;;;;;;5000537;28;20058;-79
2022/08/26 11:19:36;;;;;;;15.00;5.20;;;;;;;;;;4993812;28;20042;-81
2022/08/26 11:22:31;;;;;;;16.63;5.47;;;;;;;;;;5000530;28;20045;-81
2022/08/26 11:25:25;;;;;;;11.10;5.05;;;;;;;;;;4993814;28;20398;-80
2022/08/26 11:28:37;;;;;;;12.68;5.50;;;;;;;;;;4993651;28;20050;-81
2022/08/26 11:31:23;;;;;;;14.38;5.03;;;;;;;;;;4990982;28;20043;-83
2022/08/26 11:34:12;;;;;;;11.52;5.15;;;;;;;;;;4959493;28;20051;-82
2022/08/26 11:36:59;;;;;;;8.57;4.47;;;;;;;;;;4985721;28;20054;-80
2022/08/26 11:39:53;;;;;;;18.60;8.98;;;;;;;;;;4989474;28;20047;-81
2022/08/26 11:42:43;;;;;;;13.40;5.28;;;;;;;;;;4980371;28;20046;-81
2022/08/26 11:45:38;;;;;;;9.55;4.47;;;;;;;;;;4990308;28;20043;-82
2022/08/26 11:48:29;;;;;;;7.72;4.05;;;;;;;;;;4981573;28;20054;-81
2022/08/26 11:51:15;;;;;;;11.57;4.28;;;;;;;;;;5000587;28;20038;-80
2022/08/26 11:54:10;;;;;;;12.02;4.70;;;;;;;;;;4996732;28;20486;-80
2022/08/26 11:56:56;;;;;;;15.80;4.68;;;;;;;;;;5002481;28;20046;-81
2022/08/26 11:59:42;;;;;;;18.05;4.78;;;;;;;;;;4991716;28;20054;-82
2022/08/26 12:02:27;;;;;;;11.55;4.70;;;;;;;;;;5003056;28;20054;-80
2022/08/26 12:05:19;;;;;;;14.35;4.30;;;;;;;;;;5003532;28;20050;-80
2022/08/26 12:08:09;;;;;;;17.95;4.30;;;;;;;;;;5002560;28;20042;-80
2022/08/26 12:11:07;;;;;;;14.98;4.03;;;;;;;;;;4996714;28;20050;-82
2022/08/26 12:13:59;;;;;;;8.02;4.00;;;;;;;;;;4983733;28;20430;-82
2022/08/26 12:16:45;;;;;;;10.10;3.63;;;;;;;;;;4983445;28;20042;-81
2022/08/26 12:19:32;;;;;;;11.98;4.45;;;;;;;;;;4990096;28;20038;-81
2022/08/26 12:22:24;;;;;;;10.60;3.72;;;;;;;;;;4989108;28;20046;-81
2022/08/26 12:25:10;;;;;;;13.00;4.03;;;;;;;;;;4996852;28;20413;-80
2022/08/26 12:28:04;;;;;;;16.23;3.72;;;;;;;;;;4998195;28;20042;-79
2022/08/26 12:31:05;;;;;;;19.13;3.90;;;;;;;;;;4997433;28;20046;-81
2022/08/26 12:33:51;;;;;;;16.33;4.07;;;;;;;;;;4995150;28;20485;-80
2022/08/26 12:36:45;;;;;;;10.65;3.72;;;;;;;;;;5002768;28;20050;-80
2022/08/26 12:39:35;;;;;;;15.05;4.10;;;;;;;;;;5002713;28;20050;-81
2022/08/26 12:42:37;;;;;;;9.63;3.75;;;;;;;;;;4995207;28;20038;-81
2022/08/26 12:45:56;;;;;;;11.00;3.92;;;;;;;;;;4986942;28;20042;-79
2022/08/26 12:48:46;;;;;;;9.30;3.38;;;;;;;;;;5001231;28;20055;-81
2022/08/26 12:51:33;;;;;;;10.45;3.35;;;;;;;;;;4995922;28;20042;-82
2022/08/26 12:54:57;;;;;;;20.27;4.63;;;;;;;;;;5001597;28;20042;-80
2022/08/26 12:57:31;;;;;;;11.77;3.58;;;;;;;;;;4995551;28;20046;-81
2022/08/26 13:00:36;;;;;;;15.23;4.85;;;;;;;;;;4994961;28;20078;-79
2022/08/26 13:03:33;;;;;;;12.32;3.45;;;;;;;;;;4978995;28;20047;-81
2022/08/26 13:06:22;;;;;;;52.00;34.42;;;;;;;;;;4992561;28;20054;-78
2022/08/26 13:09:08;;;;;;;33.53;21.40;;;;;;;;;;4996079;28;20155;-79
2022/08/26 13:11:53;;;;;;;18.70;4.38;;;;;;;;;;4976353;28;20494;-79
2022/08/26 13:14:39;;;;;;;9.95;3.95;;;;;;;;;;4979884;28;20050;-80
2022/08/26 13:17:29;;;;;;;14.95;4.05;;;;;;;;;;4993032;28;20050;-80
2022/08/26 13:20:14;;;;;;;9.70;4.47;;;;;;;;;;4994882;28;20050;-82
2022/08/26 13:23:00;;;;;;;13.25;4.22;;;;;;;;;;4995758;28;20042;-80
2022/08/26 13:25:45;;;;;;;13.10;4.30;;;;;;;;;;4986949;28;20050;-81
2022/08/26 13:28:30;;;;;;;9.05;3.55;;;;;;;;;;4994468;28;20042;-81
2022/08/26 13:31:16;;;;;;;15.90;4.18;;;;;;;;;;4987310;28;20482;-83
2022/08/26 13:34:03;;;;;;;12.15;3.90;;;;;;;;;;4994990;28;20053;-81
2022/08/26 13:36:50;;;;;;;16.60;5.15;;;;;;;;;;4994895;28;20482;-82
2022/08/26 13:39:36;;;;;;;14.65;4.13;;;;;;;;;;4984711;28;20042;-81
2022/08/26 13:42:22;;;;;;;13.90;3.72;;;;;;;;;;4990977;28;20046;-82
2022/08/26 13:45:09;;;;;;;11.77;4.55;;;;;;;;;;4995532;28;20485;-82
2022/08/26 13:47:54;;;;;;;16.45;5.00;;;;;;;;;;4980564;28;20054;-81
2022/08/26 13:50:40;;;;;;;14.00;4.20;;;;;;;;;;4985873;28;20474;-82
2022/08/26 13:53:27;;;;;;;20.77;4.25;;;;;;;;;;4992345;28;20055;-80
2022/08/26 13:56:13;;;;;;;13.23;4.68;;;;;;;;;;4988798;28;20046;-80
2022/08/26 13:59:00;;;;;;;12.48;4.25;;;;;;;;;;4998872;28;20478;-81
2022/08/26 14:01:45;;;;;;;11.77;4.28;;;;;;;;;;5000518;28;20401;-81
2022/08/26 14:04:31;;;;;;;9.95;3.97;;;;;;;;;;4990442;28;20055;-81
2022/08/26 14:07:16;;;;;;;12.35;3.83;;;;;;;;;;4988533;28;20470;-80
2022/08/26 14:10:02;;;;;;;13.57;4.25;;;;;;;;;;4983837;28;20046;-80
2022/08/26 14:12:48;;;;;;;16.08;4.45;;;;;;;;;;4978042;28;20038;-81
2022/08/26 14:15:36;;;;;;;11.40;4.15;;;;;;;;;;4981885;28;20487;-82
2022/08/26 14:18:30;;;;;;;13.85;4.13;;;;;;;;;;4992629;28;20054;-81
2022/08/26 14:21:17;;;;;;;16.88;4.38;;;;;;;;;;4993980;28;20105;-81
2022/08/26 14:24:03;;;;;;;12.15;4.70;;;;;;;;;;4979306;28;20050;-81
2022/08/26 14:26:48;;;;;;;18.73;4.78;;;;;;;;;;5000872;28;20489;-81
2022/08/26 14:29:34;;;;;;;14.18;4.13;;;;;;;;;;5000561;28;20051;-80
2022/08/26 14:32:25;;;;;;;13.88;4.63;;;;;;;;;;5000889;28;20050;-81
2022/08/26 14:35:21;;;;;;;11.63;4.13;;;;;;;;;;5000483;28;20047;-82
2022/08/26 14:38:06;;;;;;;10.23;4.05;;;;;;;;;;4994509;28;20046;-81
2022/08/26 14:40:51;;;;;;;14.20;5.25;;;;;;;;;;4994469;28;20046;-80
2022/08/26 14:43:45;;;;;;;18.20;5.50;;;;;;;;;;4993871;28;20046;-80
2022/08/26 14:46:40;;;;;;;16.17;5.03;;;;;;;;;;4987525;28;20054;-80
2022/08/26 14:49:26;;;;;;;13.98;5.20;;;;;;;;;;4990888;28;20034;-81
2022/08/26 14:52:10;;;;;;;14.32;4.82;;;;;;;;;;4995824;28;20054;-80
2022/08/26 14:54:56;;;;;;;16.02;4.28;;;;;;;;;;4980845;28;20486;-82
2022/08/26 14:57:41;;;;;;;15.48;4.55;;;;;;;;;;4960056;28;20051;-81
2022/08/26 15:00:27;;;;;;;9.32;4.20;;;;;;;;;;4975772;28;20386;-80
2022/08/26 15:03:13;;;;;;;8.23;4.07;;;;;;;;;;4975805;28;20051;-81
2022/08/26 15:05:58;;;;;;;11.27;4.70;;;;;;;;;;4978743;28;20055;-80
2022/08/26 15:08:44;;;;;;;11.35;5.05;;;;;;;;;;4987707;28;20051;-80
2022/08/26 15:11:30;;;;;;;13.85;4.35;;;;;;;;;;4978837;28;20059;-80
2022/08/26 15:14:16;;;;;;;10.25;4.57;;;;;;;;;;4984776;28;20394;-81
2022/08/26 15:17:01;;;;;;;12.57;4.35;;;;;;;;;;4981749;28;20062;-80
2022/08/26 15:19:46;;;;;;;12.98;4.53;;;;;;;;;;5003681;28;20050;-80
2022/08/26 15:22:32;;;;;;;13.73;4.65;;;;;;;;;;5003605;28;20046;-80
2022/08/26 15:25:18;;;;;;;11.15;4.43;;;;;;;;;;4997149;28;20042;-80
2022/08/26 15:28:03;;;;;;;12.95;5.15;;;;;;;;;;4992643;28;20050;-80
2022/08/26 15:30:49;;;;;;;10.07;4.68;;;;;;;;;;4997411;28;20482;-80
2022/08/26 15:33:35;;;;;;;17.20;5.07;;;;;;;;;;4997734;28;20050;-80
2022/08/26 15:36:20;;;;;;;9.73;4.10;;;;;;;;;;4982511;28;20055;-80
2022/08/26 15:39:06;;;;;;;12.80;4.65;;;;;;;;;;4967725;28;20051;-82
2022/08/26 15:41:54;;;;;;;28.30;8.18;;;;;;;;;;4982564;28;20058;-82
2022/08/26 15:44:44;;;;;;;14.88;5.40;;;;;;;;;;4992563;28;20485;-80
2022/08/26 15:47:29;;;;;;;11.35;5.00;;;;;;;;;;5002053;28;20042;-82
2022/08/26 15:50:15;;;;;;;19.70;5.50;;;;;;;;;;5003289;28;20047;-81
2022/08/26 15:53:00;;;;;;;9.57;4.80;;;;;;;;;;5003739;28;20062;-82
2022/08/26 15:55:47;;;;;;;14.43;4.68;;;;;;;;;;5003851;28;20051;-81
2022/08/26 15:58:31;;;;;;;12.43;4.70;;;;;;;;;;5002251;28;20051;-82
2022/08/26 16:01:18;;;;;;;15.15;6.85;;;;;;;;;;4996803;28;20050;-81
2022/08/26 16:04:03;;;;;;;22.00;6.25;;;;;;;;;;5003330;28;20046;-79
2022/08/26 16:06:50;;;;;;;14.27;6.07;;;;;;;;;;4977325;28;20490;-80
2022/08/26 16:09:35;;;;;;;50.72;23.25;;;;;;;;;;4986032;28;20038;-81
2022/08/26 16:12:21;;;;;;;160.90;72.80;;;;;;;;;;4977253;28;20047;-81
2022/08/26 16:15:07;;;;;;;25.17;10.40;;;;;;;;;;4976903;28;20043;-82
2022/08/26 16:17:53;;;;;;;13.13;4.93;;;;;;;;;;4983606;28;20059;-81
2022/08/26 16:20:50;;;;;;;17.52;6.28;;;;;;;;;;4994050;28;20051;-83
2022/08/26 16:23:35;;;;;;;10.90;4.97;;;;;;;;;;4987325;28;20485;-81
2022/08/26 16:26:24;;;;;;;11.55;5.22;;;;;;;;;;4986501;28;20046;-81
2022/08/26 16:29:12;;;;;;;15.45;5.50;;;;;;;;;;4976850;28;20054;-80
2022/08/26 16:31:58;;;;;;;14.95;6.32;;;;;;;;;;4983257;28;20054;-80
2022/08/26 16:34:45;;;;;;;15.45;6.85;;;;;;;;;;4976667;28;20046;-80
2022/08/26 16:37:31;;;;;;;20.33;6.68;;;;;;;;;;4976310;28;20055;-80